Wetterdaten: aktuell Freitag, 28.01.2022 12:00
Datum Zeit Temp. 2m rel. Feuchte Luftdruck Regen Wind Richtung Richtung Sonne ET UV-Index Solar Taupunkt Ben
28.01.2022 12:00 6,8 C 81 % 1035,0 hPa 0,0 mm 6,1 km/h (2 Bft) N-NW 332 55 min 0,0 mm 1,6 UV-I 186 W/m 3,8 C 24,4 km/h (4 Bft)
28.01.2022 11:00 5,4 C 88 % 1034,9 hPa 0,0 mm 7,2 km/h (2 Bft) O 84 45 min 0,0 mm 1,4 UV-I 350 W/m 3,6 C 15,5 km/h (3 Bft)
28.01.2022 10:00 4,6 C 89 % 1034,5 hPa 0,0 mm 7,4 km/h (2 Bft) N 2 25 min 0,0 mm 1,1 UV-I 92 W/m 2,9 C 13,3 km/h (3 Bft)
28.01.2022 09:00 3,4 C 89 % 1034,0 hPa 0,0 mm 9,4 km/h (2 Bft) NW 323 5 min 0,0 mm 0,0 UV-I 49 W/m 1,8 C 24,4 km/h (4 Bft)
28.01.2022 08:00 3,3 C 89 % 1033,3 hPa 0,0 mm 8,8 km/h (2 Bft) O 84 0 min 0,0 mm 0,0 UV-I 0 W/m 1,7 C 15,5 km/h (3 Bft)
28.01.2022 07:00 3,8 C 87 % 1032,6 hPa 0,0 mm 6,2 km/h (2 Bft) O 84 0 min 0,0 mm 0,0 UV-I 0 W/m 1,8 C 13,3 km/h (3 Bft)
28.01.2022 06:00 4,3 C 87 % 1032,0 hPa 0,0 mm 4,0 km/h (1 Bft) N-NW 341 0 min 0,0 mm 0,0 UV-I 0 W/m 2,3 C 13,3 km/h (3 Bft)
28.01.2022 05:00 4,3 C 87 % 1031,5 hPa 0,0 mm 7,5 km/h (2 Bft) N 4 0 min 0,0 mm 0,0 UV-I 0 W/m 2,3 C 20,0 km/h (4 Bft)
28.01.2022 03:55 4,3 C 86 % 1030,7 hPa 0,0 mm 16,8 km/h (3 Bft) NW 320 0 min 0,0 mm 0,0 UV-I 0 W/m 2,2 C 28,9 km/h (5 Bft)
28.01.2022 02:55 4,9 C 86 % 1030,2 hPa 0,0 mm 5,5 km/h (1 Bft) NW 324 0 min 0,0 mm 0,0 UV-I 0 W/m 2,8 C 20,0 km/h (4 Bft)
28.01.2022 01:55 5,7 C 86 % 1029,6 hPa 0,0 mm 6,8 km/h (2 Bft) NW 325 0 min 0,0 mm 0,0 UV-I 0 W/m 3,5 C 24,4 km/h (4 Bft)
28.01.2022 00:55 5,8 C 86 % 1028,5 hPa 0,0 mm 6,2 km/h (2 Bft) O 84 0 min 0,0 mm 0,0 UV-I 0 W/m 3,6 C 15,5 km/h (3 Bft)
27.01.2022 23:55 6,2 C 85 % 1028,0 hPa 0,0 mm 10,5 km/h (2 Bft) W-NW 295 0 min 0,0 mm 0,0 UV-I 0 W/m 3,9 C 26,7 km/h (4 Bft)
27.01.2022 22:55 6,4 C 86 % 1027,5 hPa 0,0 mm 9,0 km/h (2 Bft) N 2 0 min 0,0 mm 0,0 UV-I 0 W/m 4,2 C 22,2 km/h (4 Bft)
27.01.2022 21:55 6,6 C 86 % 1026,7 hPa 0,0 mm 3,5 km/h (1 Bft) W-NW 300 0 min 0,0 mm 0,0 UV-I 0 W/m 4,4 C 13,3 km/h (3 Bft)
27.01.2022 20:55 7,0 C 87 % 1025,9 hPa 0,3 mm 8,1 km/h (2 Bft) O 84 0 min 0,0 mm 0,0 UV-I 0 W/m 5,0 C 22,2 km/h (4 Bft)
27.01.2022 19:55 7,1 C 90 % 1025,4 hPa 0,3 mm 2,6 km/h (1 Bft) O 84 0 min 0,0 mm 0,0 UV-I 0 W/m 5,6 C 8,9 km/h (2 Bft)
27.01.2022 18:55 7,5 C 91 % 1024,3 hPa 0,3 mm 4,4 km/h (1 Bft) O 84 0 min 0,0 mm 0,0 UV-I 0 W/m 6,1 C 17,8 km/h (3 Bft)
27.01.2022 17:55 7,6 C 91 % 1023,8 hPa 0,3 mm 19,5 km/h (3 Bft) O 84 0 min 0,0 mm 0,0 UV-I 0 W/m 6,2 C 35,5 km/h (5 Bft)
27.01.2022 16:55 7,3 C 91 % 1023,7 hPa 0,0 mm 15,7 km/h (3 Bft) N-NO 16 0 min 0,0 mm 0,0 UV-I 0 W/m 5,9 C 26,7 km/h (4 Bft)
27.01.2022 15:55 7,1 C 91 % 1023,4 hPa 0,0 mm 14,9 km/h (3 Bft) O 84 0 min 0,0 mm 0,0 UV-I 9 W/m 5,7 C 35,5 km/h (5 Bft)
27.01.2022 14:55 6,8 C 91 % 1023,2 hPa 0,3 mm 15,8 km/h (3 Bft) O 84 0 min 0,0 mm 0,0 UV-I 20 W/m 5,4 C 51,1 km/h (7 Bft)
27.01.2022 13:55 6,5 C 91 % 1023,3 hPa 0,0 mm 16,6 km/h (3 Bft) O 84 0 min 0,0 mm 0,0 UV-I 31 W/m 5,1 C 42,2 km/h (6 Bft)
27.01.2022 13:00 6,3 C 91 % 1023,8 hPa 0,0 mm 19,9 km/h (4 Bft) O 84 0 min 0,0 mm 0,5 UV-I 64 W/m 4,9 C 42,2 km/h (6 Bft)
_ Min-Zeit 08:05 12:00 14:35 - 19:30 - - - - - - 08:05 19:30
Minimum _ 3,2 C 81 % 1023,1 hPa - 1,4 km/h (1 Bft) - - - - - - 1,6 C 4,4 km/h (1 Bft)
_ Max-Zeit 18:10 13:00 11:35 14:35 17:30 - - 08:30 11:05 11:45 11:35 18:10 13:10
Maximum _ 7,7 C 91 % 1035,3 hPa 0,3 mm 21,0 km/h
O (4 Bft)
- - 5 min 0,1 mm 1,7 UV-I 462 W/m 6,3 C 51,1 km/h
O (7 Bft)
Durchschnitt _ 5,8 C 88 % 1028,2 hPa #1,3 mm 10,3 km/h (2 Bft) O - #2:10 h #0,102 mm 1,2 UV-I 179 W/m 4,0 C 24,7 km/h (4 Bft)



© 1998 - 2022 www.pulheimwetter.de